Yera Yona — EB4403 — position and weather

sailwx.info

Track history (hours):
 
Tides and Currents Weather Stations Pressure Air Temp Water Temp Dewpoint Dewpoint Depression Visibility Wind Speed Wind Dir Waves Ship Positions

Yera Yona

Last reported at 2018-Mar-21 15:11 UTC. Time now 2018-Jun-21 14:28 UTC.
Position N 28°24' W 016°07'.
Warning: this ship's position is months out of date.

Length 16 m; draft 3 m.

Type: Fishing. MMSI: 224178660.

Date/timePositionNaut miles runAvg speedWind from/ knotsBaromVisibWave heightAir tempDewpointWater temp
2018-Mar-21 15:11N 28°24' W 016°07'2 7.7
2018-Mar-21 14:57N 28°25' W 016°08'3 7.6
2018-Mar-21 14:30N 28°28' W 016°11'3 5.3
2018-Mar-21 13:59N 28°30' W 016°12'0 0.0
2018-Mar-21 13:30N 28°30' W 016°12'0 0.0
2018-Mar-21 13:00N 28°30' W 016°12'0 0.0
2018-Mar-21 12:30N 28°30' W 016°12'0 0.0
2018-Mar-21 12:00N 28°30' W 016°12'0 0.0
2018-Mar-21 11:30N 28°30' W 016°12'0 0.0
2018-Mar-21 11:00N 28°30' W 016°12'0 0.0
2018-Mar-21 10:30N 28°30' W 016°12'0 0.0
2018-Mar-21 10:00N 28°30' W 016°12'0 0.0
2018-Mar-21 09:30N 28°30' W 016°12'3 5.0
2018-Mar-21 09:00N 28°30' W 016°09'4 8.5
2018-Mar-21 08:30N 28°33' W 016°06'  
2018-Mar-17 19:02N 28°35' W 016°04'0 7.7
2018-Mar-17 19:00N 28°35' W 016°04'  
Track history (hours):
 
Tides and Currents Weather Stations Pressure Air Temp Water Temp Dewpoint Dewpoint Depression Visibility Wind Speed Wind Dir Waves Ship Positions

Yera Yona

Last reported at 2018-Mar-21 15:11 UTC. Time now 2018-Jun-21 14:28 UTC.
Position N 28°24' W 016°07'.
Warning: this ship's position is months out of date.

Length 16 m; draft 3 m.

Type: Fishing. MMSI: 224178660.

Date/timePositionNaut miles runAvg speedWind from/ knotsBaromVisibWave heightAir tempDewpointWater temp
2018-Mar-21 15:11N 28°24' W 016°07'2 7.7
2018-Mar-21 14:57N 28°25' W 016°08'3 7.6
2018-Mar-21 14:30N 28°28' W 016°11'3 5.3
2018-Mar-21 13:59N 28°30' W 016°12'0 0.0
2018-Mar-21 13:30N 28°30' W 016°12'0 0.0
2018-Mar-21 13:00N 28°30' W 016°12'0 0.0
2018-Mar-21 12:30N 28°30' W 016°12'0 0.0
2018-Mar-21 12:00N 28°30' W 016°12'0 0.0
2018-Mar-21 11:30N 28°30' W 016°12'0 0.0
2018-Mar-21 11:00N 28°30' W 016°12'0 0.0
2018-Mar-21 10:30N 28°30' W 016°12'0 0.0
2018-Mar-21 10:00N 28°30' W 016°12'0 0.0
2018-Mar-21 09:30N 28°30' W 016°12'3 5.0
2018-Mar-21 09:00N 28°30' W 016°09'4 8.5
2018-Mar-21 08:30N 28°33' W 016°06'  
2018-Mar-17 19:02N 28°35' W 016°04'0 7.7
2018-Mar-17 19:00N 28°35' W 016°04'  

Dump ship's entire track history